Главная страница
METAR-TAF:

METAR-TAF

Аэропорты :

Чебоксары, Россия

широта: 56-05-24N, долгота: 047-20-50E, высота над уровнем моря: 171 м

Текущие метеонаблюдения

Эта сводка был подготовлена 20 минут назад, в 12:00 UTC
Ветер 4 Узел от северо-западный, изменяющийся между западный-юго-западный и северный
Температура 29°C
Влажность 33%
Давление 1013 hPa
Видимость 10 км и более
Отдельные облака на высоте 4000 фута

METAR: UWKS 231200Z 32002MPS 250V360 9999 SCT040 29/11 Q1013 R06/010060 NOSIG RMK QFE744

Время: 15:20 (12:20 UTC)

Прогноз

Эта сводка был подготовлена 1 час и 28 минут назад, в 10:52 UTC
Прогноз действительный с 23-го 12 UTC до 23-го 21 UTC
Ветер 6 Узел от западный-юго-западный с порывами до 16 Узел
Видимость 10 км и более
Отдельные облака на высоте 2000 фута, Кучево-дождевые.

TAF: UWKS 231052Z 2312/2321 24003G08MPS 9999 SCT020CB

Метеонаблюдения и прогнозы для более 4000 аэропортов (сводки METAR и TAF).

Имеющиеся станции представлены на карте желтыми и красными точками.

Чтобы увидеть название станции, наведите на нее мышь.

Затем щелкните, чтобы увидеть метеонаблюдения и метеопрогнозы.

Управление картой: чтобы увеличить масштаб, щелкните зеленые кнопки с черным крестиком; чтобы уменьшить масштаб, щелкните зеленую кнопку с тире; для просмотра соседних карт щелкайте зеленые стрелки.


METAR-TAF: